• Join FlightAware (Why Join?)
  • Login
  • US Flag 
06:06AM EST


 

Airport Tracker/Info


-or-


 

Live Flight TrackerFlight Track Log ✈ LOF3359 ✈ 09-Apr-2013 ✈ KDAY - KIAD

Flight Track Log - Related Links

Times and Time Zones

All times are in EDT time to prevent confusion due to time zone crossing. See the LOF3359 flight status page for this flight to view local times or setup timezone preferences in your user account.

Time Position Orientation Groundspeed Altitude Reporting Facility
EDT Latitude Longitude Course Direction KTS MPH feet Rate Location/Type
02:27PM 39.8697 -84.2378 198° South 164 189 2,500  Level Indianapolis Center
02:27PM 39.8425 -84.2336 173° South 195 224 3,600 2,100 Climbing Indianapolis Center
02:28PM 39.8211 -84.1675 113° Southeast 238 274 5,900 2,040 Climbing Indianapolis Center
02:29PM 39.8431 -84.0767 73° East 254 292 7,900 1,680 Climbing Indianapolis Center
02:30PM 39.9695 -83.6982 79° East  Level FlightAware Approximate
02:31PM 39.9896 -83.5681 79° East  Level FlightAware Approximate
02:31PM 39.8667 -83.9672 74° East 292 336 9,400  Level Indianapolis Center
02:32PM 40.0135 -83.4392 74° East  Level FlightAware Approximate
02:32PM 39.8964 -83.8233 75° East 345 397 11,400  Level Indianapolis Center
02:33PM 39.9239 -83.6919 75° East 368 423 13,100 1,680 Climbing Indianapolis Center
02:34PM 39.9467 -83.5556 78° East 379 436 14,900 1,680 Climbing Indianapolis Center
02:35PM 39.9369 -83.4139 95° East 381 438 16,600 1,500 Climbing Indianapolis Center
02:36PM 39.9233 -83.2711 97° East 388 447 18,000 1,380 Climbing Indianapolis Center
02:37PM 39.9100 -83.1256 97° East 396 456 19,500 1,440 Climbing Indianapolis Center
02:38PM 39.8961 -82.9792 97° East 403 464 21,000 1,380 Climbing Indianapolis Center
02:39PM 39.8825 -82.8306 97° East 408 470 22,400 1,320 Climbing Indianapolis Center
02:40PM 39.8675 -82.6819 97° East 410 472 23,800 1,260 Climbing Indianapolis Center
02:41PM 39.8531 -82.5314 97° East 416 479 25,100 1,200 Climbing Indianapolis Center
02:42PM 39.8367 -82.3781 98° East 422 486 26,300 900 Climbing Indianapolis Center
02:43PM 39.8219 -82.2247 97° East 424 488 27,000 300 Climbing Indianapolis Center
02:44PM 39.8047 -82.0625 98° East 445 512 27,000  Level Indianapolis Center
02:45PM 39.7847 -81.8647 97° East 469 540 27,000  Level Indianapolis Center
02:46PM 39.7664 -81.6911 98° East 478 550 27,000  Level Indianapolis Center
02:47PM 39.7583 -81.5875 96° East 478 550 27,000  Level Cleveland Center
02:48PM 39.7389 -81.4144 98° East 483 556 27,000  Level Cleveland Center
02:49PM 39.7214 -81.2417 97° East 483 556 27,000  Level Cleveland Center
02:50PM 39.7033 -81.0714 98° East 483 556 27,000  Level Cleveland Center
02:51PM 39.6811 -80.9014 100° East 483 556 27,000  Level Cleveland Center
02:52PM 39.6628 -80.7286 98° East 483 556 27,000  Level Cleveland Center
02:53PM 39.6397 -80.5400 99° East 483 556 27,000  Level Cleveland Center
02:54PM 39.6208 -80.3675 98° East 483 556 27,000  Level Cleveland Center
02:54PM 39.6147 -80.3194 99° East 498 573 27,000  Level Washington Center
02:55PM 39.5942 -80.1483 99° East 503 579 27,000  Level Washington Center
02:56PM 39.5736 -79.9747 99° East 492 566 27,000  Level Washington Center
02:57PM 39.5506 -79.8011 100° East 492 566 27,000  Level Washington Center
02:58PM 39.5208 -79.6325 103° East 487 560 27,000 -60 Level Washington Center
02:59PM 39.4869 -79.4583 104° East 487 560 26,900 -840 Descending Washington Center
03:00PM 39.4569 -79.2900 103° East 487 560 25,400 -1,800 Descending Washington Center
03:01PM 39.4286 -79.1194 102° East 459 528 23,300 -2,400 Descending Washington Center
03:02PM 39.4017 -78.9678 103° East 444 511 20,600 -2,460 Descending Washington Center
03:03PM 39.3700 -78.8292 106° East 418 481 18,400 -2,400 Descending Washington Center
03:04PM 39.3447 -78.6886 103° East 396 456 15,800 -2,520 Descending Washington Center
03:05PM 39.3208 -78.5589 103° East 388 447 13,400 -2,280 Descending Washington Center
03:06PM 39.2969 -78.4236 103° East 378 435 11,300 -1,200 Descending Washington Center
03:07PM 39.2581 -78.3097 114° Southeast 364 419 11,100 -360 Descending Washington Center
03:08PM 39.2058 -78.2167 126° Southeast 333 383 10,600 -1,020 Descending Washington Center
03:09PM 39.1556 -78.1239 125° Southeast 321 369 9,100 -1,260 Descending Washington Center
03:10PM 39.0811 -78.0972 164° South 276 318 8,100 -900 Descending Washington Center
03:11PM 39.0175 -78.0547 153° Southeast 266 306 7,400 -600 Descending Washington Center
03:12PM 38.9856 -77.9789 118° Southeast 240 276 7,000 -660 Descending Washington Center
03:13PM 38.9769 -77.8853 97° East 248 285 6,100 -540 Descending Washington Center
03:14PM 38.9683 -77.7889 97° East 259 298 6,000 -120 Descending Washington Center
03:16PM 38.9833 -77.6000 84° East 267 307 5,800 -540 Descending Potomac TRACON
03:17PM 39.0500 -77.5833 11° North 273 314 4,500 -900 Descending Potomac TRACON
03:18PM 39.1000 -77.5333 38° Northeast 249 287 4,000 -540 Descending Potomac TRACON